Time;durP1;ratioP1;P1;durP2;ratioP2;P2;SDS_P1;SDS_P2;PMS_P1;PMS_P2;Temp;Humidity;BMP_temperature;BMP_pressure;BME280_temperature;BME280_humidity;BME280_pressure;Samples;Min_cycle;Max_cycle;Signal;HPM_P1;HPM_P2
2023/12/17 00:00:11;;;;;;;;;;;9.80;99.90;;;;;;5030263;28;19978;-66
2023/12/17 00:02:36;;;;;;;;;;;9.80;99.90;;;;;;5012277;28;19935;-67
2023/12/17 00:05:03;;;;;;;;;;;9.90;99.90;;;;;;5031371;28;19924;-66
2023/12/17 00:07:29;;;;;;;;;;;9.90;99.90;;;;;;5009791;28;19935;-66
2023/12/17 00:09:55;;;;;;;;;;;9.90;99.90;;;;;;5029745;28;20023;-66
2023/12/17 00:12:20;;;;;;;;;;;9.90;99.90;;;;;;5031299;27;19934;-67
2023/12/17 00:14:47;;;;;;;;;;;9.90;99.90;;;;;;5031385;28;19928;-67
2023/12/17 00:17:12;;;;;;;;;;;9.90;99.90;;;;;;5015205;27;19932;-66
2023/12/17 00:19:38;;;;;;;;;;;9.80;99.90;;;;;;5030737;28;19935;-67
2023/12/17 00:22:04;;;;;;;;;;;9.90;99.90;;;;;;4996249;28;20521;-66
2023/12/17 00:24:30;;;;;;;;;;;9.80;99.90;;;;;;5029179;28;19935;-65
2023/12/17 00:26:57;;;;;;;;;;;9.80;99.90;;;;;;5007282;28;19939;-66
2023/12/17 00:29:23;;;;;;;;;;;9.80;99.90;;;;;;5030331;28;20506;-66
2023/12/17 00:31:49;;;;;;;;;;;9.80;99.90;;;;;;5022860;27;19924;-66
2023/12/17 00:34:15;;;;;;;;;;;9.80;99.90;;;;;;5035236;27;20465;-66
2023/12/17 00:36:41;;;;;;;;;;;9.80;99.90;;;;;;5007265;28;19935;-67
2023/12/17 00:39:07;;;;;;;;;;;9.80;99.90;;;;;;5035076;28;20465;-67
2023/12/17 00:41:33;;;;;;;;;;;9.80;99.90;;;;;;5003557;28;20010;-65
2023/12/17 00:43:59;;;;;;;;;;;9.80;99.90;;;;;;5029287;28;19928;-67
2023/12/17 00:46:25;;;;;;;;;;;9.80;99.90;;;;;;5016342;27;19927;-67
2023/12/17 00:48:51;;;;;;;;;;;9.80;99.90;;;;;;5041615;27;19951;-67
2023/12/17 00:51:17;;;;;;;;;;;9.80;99.90;;;;;;4998088;28;19947;-66
2023/12/17 00:53:43;;;;;;;;;;;9.80;99.90;;;;;;5025359;28;20878;-65
2023/12/17 00:56:09;;;;;;;;;;;9.80;99.90;;;;;;5010999;28;19930;-66
2023/12/17 00:58:35;;;;;;;;;;;9.80;99.90;;;;;;5038882;28;19935;-66
2023/12/17 01:01:01;;;;;;;;;;;9.80;99.90;;;;;;5005854;28;19923;-66
2023/12/17 01:03:27;;;;;;;;;;;9.80;99.90;;;;;;5043229;28;19963;-66
2023/12/17 01:05:53;;;;;;;;;;;9.80;99.90;;;;;;5012420;27;19928;-66
2023/12/17 01:08:19;;;;;;;;;;;9.80;99.90;;;;;;5043302;28;20436;-66
2023/12/17 01:10:45;;;;;;;;;;;9.80;99.90;;;;;;5002244;28;19951;-66
2023/12/17 01:13:11;;;;;;;;;;;9.80;99.90;;;;;;5027708;28;19927;-66
2023/12/17 01:15:37;;;;;;;;;;;9.80;99.90;;;;;;4995341;28;19925;-66
2023/12/17 01:18:03;;;;;;;;;;;9.80;99.90;;;;;;5009518;28;19965;-65
2023/12/17 01:20:29;;;;;;;;;;;9.80;99.90;;;;;;4997977;28;19930;-66
2023/12/17 01:22:55;;;;;;;;;;;9.80;99.90;;;;;;5040000;28;20501;-67
2023/12/17 01:25:21;;;;;;;;;;;9.90;99.90;;;;;;5000647;28;20913;-66
2023/12/17 01:27:47;;;;;;;;;;;9.80;99.90;;;;;;5050543;28;19932;-66
2023/12/17 01:30:13;;;;;;;;;;;9.90;99.90;;;;;;5029007;28;21068;-65
2023/12/17 01:32:38;;;;;;;;;;;9.80;99.90;;;;;;4991252;28;19974;-66
2023/12/17 01:35:07;;;;;;;;;;;9.80;99.90;;;;;;5028350;28;19935;-66
2023/12/17 01:37:33;;;;;;;;;;;9.90;99.90;;;;;;5021984;28;20561;-67
2023/12/17 01:39:59;;;;;;;;;;;9.80;99.90;;;;;;5028464;28;19924;-67
2023/12/17 01:42:25;;;;;;;;;;;9.90;99.90;;;;;;5005910;28;19928;-65
2023/12/17 01:44:51;;;;;;;;;;;9.80;99.90;;;;;;5028977;28;19977;-66
2023/12/17 01:47:17;;;;;;;;;;;9.80;99.90;;;;;;5007440;28;19939;-66
2023/12/17 01:49:43;;;;;;;;;;;9.80;99.90;;;;;;5028460;28;20081;-65
2023/12/17 01:52:09;;;;;;;;;;;9.80;99.90;;;;;;4991723;28;19947;-66
2023/12/17 01:54:35;;;;;;;;;;;9.90;99.90;;;;;;5026809;28;19925;-66
2023/12/17 01:57:01;;;;;;;;;;;9.90;99.90;;;;;;4990426;28;21093;-66
2023/12/17 01:59:27;;;;;;;;;;;9.80;99.90;;;;;;5028183;28;20002;-66
2023/12/17 02:01:53;;;;;;;;;;;9.90;99.90;;;;;;4981451;28;19928;-67
2023/12/17 02:04:22;;;;;;;;;;;9.90;99.90;;;;;;5030396;28;19931;-67
2023/12/17 02:06:48;;;;;;;;;;;9.90;99.90;;;;;;5009165;28;20389;-66
2023/12/17 02:09:14;;;;;;;;;;;9.90;99.90;;;;;;5025029;28;19932;-66
2023/12/17 02:11:40;;;;;;;;;;;9.90;99.90;;;;;;5001144;28;19927;-66
2023/12/17 02:14:06;;;;;;;;;;;9.90;99.90;;;;;;5024837;28;19935;-66
2023/12/17 02:16:32;;;;;;;;;;;9.90;99.90;;;;;;5005519;28;20066;-65
2023/12/17 02:18:58;;;;;;;;;;;9.90;99.90;;;;;;5033231;28;20030;-66
2023/12/17 02:21:24;;;;;;;;;;;9.90;99.90;;;;;;4985394;28;20438;-66
2023/12/17 02:23:49;;;;;;;;;;;9.90;99.90;;;;;;5010730;28;19924;-65
2023/12/17 02:26:17;;;;;;;;;;;9.90;99.90;;;;;;4996055;28;19935;-65
2023/12/17 02:28:43;;;;;;;;;;;9.90;99.90;;;;;;5013665;28;19924;-66
2023/12/17 02:31:09;;;;;;;;;;;9.90;99.90;;;;;;4994713;28;19929;-66
2023/12/17 02:33:35;;;;;;;;;;;9.90;99.90;;;;;;5025004;28;19925;-65
2023/12/17 02:36:01;;;;;;;;;;;9.90;99.90;;;;;;4997200;28;19924;-65
2023/12/17 02:38:27;;;;;;;;;;;9.90;99.90;;;;;;5033729;28;20957;-66
2023/12/17 02:40:53;;;;;;;;;;;9.90;99.90;;;;;;5006521;28;19927;-65
2023/12/17 02:43:18;;;;;;;;;;;9.90;99.90;;;;;;5051160;27;19924;-66
2023/12/17 02:45:44;;;;;;;;;;;9.90;99.90;;;;;;5001483;28;19928;-66
2023/12/17 02:48:10;;;;;;;;;;;9.90;99.90;;;;;;5043096;28;19924;-66
2023/12/17 02:50:36;;;;;;;;;;;9.90;99.90;;;;;;4993505;28;19933;-66
2023/12/17 02:53:02;;;;;;;;;;;9.90;99.90;;;;;;5024033;28;19920;-66
2023/12/17 02:55:28;;;;;;;;;;;9.90;99.90;;;;;;4997446;28;19998;-66
2023/12/17 02:57:54;;;;;;;;;;;9.90;99.90;;;;;;5031000;28;19920;-65
2023/12/17 03:00:20;;;;;;;;;;;9.90;99.90;;;;;;4999900;28;20466;-65
2023/12/17 03:02:45;;;;;;;;;;;9.90;99.90;;;;;;5052743;27;19923;-65
2023/12/17 03:05:11;;;;;;;;;;;9.90;99.90;;;;;;5026327;28;19950;-66
2023/12/17 03:07:37;;;;;;;;;;;9.90;99.90;;;;;;4998318;28;20444;-66
2023/12/17 03:10:03;;;;;;;;;;;10.00;99.90;;;;;;5023248;28;19928;-66
2023/12/17 03:12:29;;;;;;;;;;;10.00;99.90;;;;;;5003632;28;19931;-66
2023/12/17 03:14:55;;;;;;;;;;;10.00;99.90;;;;;;5026300;28;19928;-66
2023/12/17 03:17:21;;;;;;;;;;;10.00;99.90;;;;;;5006914;28;19924;-65
2023/12/17 03:19:47;;;;;;;;;;;10.00;99.90;;;;;;5019073;28;19928;-66
2023/12/17 03:22:13;;;;;;;;;;;10.00;99.90;;;;;;5028169;27;19928;-66
2023/12/17 03:24:39;;;;;;;;;;;10.00;99.90;;;;;;5027277;28;19929;-67
2023/12/17 03:27:05;;;;;;;;;;;10.00;99.90;;;;;;4980843;28;19929;-67
2023/12/17 03:29:31;;;;;;;;;;;10.00;99.90;;;;;;5024918;28;19935;-67
2023/12/17 03:31:58;;;;;;;;;;;10.00;99.90;;;;;;5004783;28;19928;-67
2023/12/17 03:34:23;;;;;;;;;;;10.00;99.90;;;;;;5022478;28;19924;-66
2023/12/17 03:36:49;;;;;;;;;;;10.00;99.90;;;;;;4994309;28;21489;-67
2023/12/17 03:39:15;;;;;;;;;;;10.00;99.90;;;;;;5030294;28;19931;-67
2023/12/17 03:41:41;;;;;;;;;;;10.00;99.90;;;;;;4977507;28;20935;-67
2023/12/17 03:44:07;;;;;;;;;;;10.00;99.90;;;;;;5017250;28;19928;-66
2023/12/17 03:46:34;;;;;;;;;;;10.00;99.90;;;;;;4994503;28;19934;-65
2023/12/17 03:49:00;;;;;;;;;;;10.00;99.90;;;;;;5027583;28;19939;-65
2023/12/17 03:51:26;;;;;;;;;;;10.00;99.90;;;;;;4992770;28;21024;-66
2023/12/17 03:53:52;;;;;;;;;;;10.00;99.90;;;;;;5033378;28;19924;-66
2023/12/17 03:56:22;;;;;;;;;;;10.00;99.90;;;;;;4992661;28;19940;-66
2023/12/17 03:58:48;;;;;;;;;;;10.00;99.90;;;;;;5018764;28;19929;-66
2023/12/17 04:01:14;;;;;;;;;;;10.00;99.90;;;;;;5010923;28;20412;-66
2023/12/17 04:03:40;;;;;;;;;;;10.00;99.90;;;;;;5042285;28;20038;-66
2023/12/17 04:06:07;;;;;;;;;;;10.00;99.90;;;;;;5003751;28;19974;-65
2023/12/17 04:08:33;;;;;;;;;;;10.00;99.90;;;;;;5028752;28;20528;-66
2023/12/17 04:10:59;;;;;;;;;;;10.00;99.90;;;;;;5002459;28;20844;-67
2023/12/17 04:13:25;;;;;;;;;;;10.00;99.90;;;;;;5045349;27;20379;-66
2023/12/17 04:15:51;;;;;;;;;;;10.00;99.90;;;;;;5004187;27;19923;-65
2023/12/17 04:18:17;;;;;;;;;;;10.00;99.90;;;;;;5050958;27;20444;-66
2023/12/17 04:20:43;;;;;;;;;;;10.00;99.90;;;;;;4999402;28;19931;-66
2023/12/17 04:23:08;;;;;;;;;;;10.00;99.90;;;;;;5026468;28;19924;-63
2023/12/17 04:25:34;;;;;;;;;;;10.00;99.90;;;;;;5002432;28;19936;-66
2023/12/17 04:28:00;;;;;;;;;;;10.00;99.90;;;;;;5044652;28;19943;-66
2023/12/17 04:30:26;;;;;;;;;;;10.00;99.90;;;;;;4997918;28;19935;-66
2023/12/17 04:32:52;;;;;;;;;;;9.90;99.90;;;;;;5050526;28;20549;-66
2023/12/17 04:35:18;;;;;;;;;;;10.00;99.90;;;;;;5008820;28;19923;-65
2023/12/17 04:37:44;;;;;;;;;;;9.90;99.90;;;;;;5047318;28;19932;-67
2023/12/17 04:40:10;;;;;;;;;;;9.90;99.90;;;;;;5028296;28;19935;-67
2023/12/17 04:42:36;;;;;;;;;;;9.90;99.90;;;;;;5006549;28;19924;-67
2023/12/17 04:45:05;;;;;;;;;;;9.90;99.90;;;;;;5029142;28;19932;-66
2023/12/17 04:47:31;;;;;;;;;;;9.90;99.90;;;;;;5019851;28;19939;-66
2023/12/17 04:49:57;;;;;;;;;;;9.90;99.90;;;;;;5028733;28;19935;-66
2023/12/17 04:52:23;;;;;;;;;;;9.90;99.90;;;;;;5005009;28;19936;-66
2023/12/17 04:54:49;;;;;;;;;;;9.90;99.90;;;;;;5028811;28;19924;-65
2023/12/17 04:57:15;;;;;;;;;;;9.90;99.90;;;;;;4992107;28;19924;-66
2023/12/17 04:59:41;;;;;;;;;;;9.90;99.90;;;;;;5029642;28;19932;-66
2023/12/17 05:02:07;;;;;;;;;;;9.90;99.90;;;;;;5035834;27;19946;-66
2023/12/17 05:04:33;;;;;;;;;;;9.90;99.90;;;;;;5031416;27;21497;-67
2023/12/17 05:06:59;;;;;;;;;;;9.90;99.90;;;;;;5019107;28;21093;-67
2023/12/17 05:09:25;;;;;;;;;;;9.80;99.90;;;;;;5032199;28;19930;-67
2023/12/17 05:11:51;;;;;;;;;;;9.80;99.90;;;;;;4991526;28;19935;-67
2023/12/17 05:14:17;;;;;;;;;;;9.90;99.90;;;;;;5022964;28;19935;-67
2023/12/17 05:16:42;;;;;;;;;;;9.90;99.90;;;;;;5019475;27;20085;-67
2023/12/17 05:19:09;;;;;;;;;;;9.80;99.90;;;;;;5039245;27;19927;-67
2023/12/17 05:21:35;;;;;;;;;;;9.80;99.90;;;;;;5014230;27;20408;-67
2023/12/17 05:24:02;;;;;;;;;;;9.80;99.90;;;;;;5043993;27;19928;-67
2023/12/17 05:26:28;;;;;;;;;;;9.80;99.90;;;;;;5011354;28;19932;-66
2023/12/17 05:28:54;;;;;;;;;;;9.80;99.90;;;;;;5034750;28;19924;-66
2023/12/17 05:31:20;;;;;;;;;;;9.80;99.90;;;;;;5002889;28;19953;-66
2023/12/17 05:33:49;;;;;;;;;;;9.70;99.90;;;;;;5040302;28;19931;-67
2023/12/17 05:36:14;;;;;;;;;;;9.70;99.90;;;;;;4996175;28;19936;-67
2023/12/17 05:38:40;;;;;;;;;;;9.70;99.90;;;;;;5016662;28;19939;-67
2023/12/17 05:41:06;;;;;;;;;;;9.70;99.90;;;;;;5009171;28;20469;-66
2023/12/17 05:43:32;;;;;;;;;;;9.70;99.90;;;;;;5040252;28;19951;-67
2023/12/17 05:45:58;;;;;;;;;;;9.60;99.90;;;;;;5002649;28;19928;-67
2023/12/17 05:48:24;;;;;;;;;;;9.60;99.90;;;;;;5033775;28;19928;-68
2023/12/17 05:50:50;;;;;;;;;;;9.60;99.90;;;;;;4997939;28;20338;-67
2023/12/17 05:53:16;;;;;;;;;;;9.60;99.90;;;;;;5023588;28;19931;-67
2023/12/17 05:55:42;;;;;;;;;;;9.50;99.90;;;;;;5016083;28;19930;-67
2023/12/17 05:58:08;;;;;;;;;;;9.50;99.90;;;;;;5035641;28;19928;-67
2023/12/17 06:00:34;;;;;;;;;;;9.50;99.90;;;;;;4999083;28;19925;-65
2023/12/17 06:03:00;;;;;;;;;;;9.50;99.90;;;;;;5021291;28;19924;-66
2023/12/17 06:05:26;;;;;;;;;;;9.50;99.90;;;;;;4998645;28;20315;-66
2023/12/17 06:07:52;;;;;;;;;;;9.50;99.90;;;;;;5036656;28;20046;-66
2023/12/17 06:10:18;;;;;;;;;;;9.40;99.90;;;;;;5007313;28;19935;-65
2023/12/17 06:12:44;;;;;;;;;;;9.50;99.90;;;;;;5035706;28;19935;-65
2023/12/17 06:15:10;;;;;;;;;;;9.40;99.90;;;;;;5028323;28;19939;-66
2023/12/17 06:17:36;;;;;;;;;;;9.40;99.90;;;;;;5007777;28;20682;-66
2023/12/17 06:20:02;;;;;;;;;;;9.50;99.90;;;;;;5025784;28;19924;-65
2023/12/17 06:22:28;;;;;;;;;;;9.40;99.90;;;;;;5022471;28;19927;-66
2023/12/17 06:24:54;;;;;;;;;;;9.40;99.90;;;;;;5027413;28;20523;-66
2023/12/17 06:27:20;;;;;;;;;;;9.50;99.90;;;;;;4999992;28;20642;-66
2023/12/17 06:29:48;;;;;;;;;;;9.50;99.90;;;;;;5006790;28;20733;-67
2023/12/17 06:32:14;;;;;;;;;;;9.50;99.90;;;;;;4993185;28;19936;-67
2023/12/17 06:34:42;;;;;;;;;;;9.50;99.90;;;;;;5026069;28;19935;-66
2023/12/17 06:37:07;;;;;;;;;;;9.50;99.90;;;;;;5019855;28;21141;-66
2023/12/17 06:39:33;;;;;;;;;;;9.50;99.90;;;;;;5030624;28;19931;-66
2023/12/17 06:41:59;;;;;;;;;;;9.40;99.90;;;;;;4995616;28;19924;-65
2023/12/17 06:44:25;;;;;;;;;;;9.50;99.90;;;;;;5031387;28;20322;-66
2023/12/17 06:46:51;;;;;;;;;;;9.50;99.90;;;;;;4991501;28;19932;-66
2023/12/17 06:49:17;;;;;;;;;;;9.50;99.90;;;;;;5028677;28;20205;-65
2023/12/17 06:51:43;;;;;;;;;;;9.50;99.90;;;;;;4994346;28;20478;-66
2023/12/17 06:54:09;;;;;;;;;;;9.50;99.90;;;;;;5026264;28;19924;-67
2023/12/17 06:56:35;;;;;;;;;;;9.50;99.90;;;;;;5016581;28;19931;-67
2023/12/17 06:59:01;;;;;;;;;;;9.50;99.90;;;;;;5039308;28;19932;-66
2023/12/17 07:01:27;;;;;;;;;;;9.50;99.90;;;;;;5015911;28;20489;-66
2023/12/17 07:03:53;;;;;;;;;;;9.50;99.90;;;;;;5031137;28;19932;-66
2023/12/17 07:06:19;;;;;;;;;;;9.50;99.90;;;;;;5005099;28;20081;-66
2023/12/17 07:08:48;;;;;;;;;;;9.50;99.90;;;;;;5021932;28;19963;-66
2023/12/17 07:11:14;;;;;;;;;;;9.50;99.90;;;;;;4992904;28;19931;-67
2023/12/17 07:13:40;;;;;;;;;;;9.50;99.90;;;;;;5025540;28;19924;-66
2023/12/17 07:16:06;;;;;;;;;;;9.40;99.90;;;;;;4983598;28;19975;-66
2023/12/17 07:18:32;;;;;;;;;;;9.40;99.90;;;;;;5003466;28;19935;-66
2023/12/17 07:20:58;;;;;;;;;;;9.40;99.90;;;;;;5000046;28;20399;-66
2023/12/17 07:23:25;;;;;;;;;;;9.40;99.90;;;;;;5023991;28;19924;-67
2023/12/17 07:25:52;;;;;;;;;;;9.40;99.90;;;;;;5002439;28;20102;-67
2023/12/17 07:28:18;;;;;;;;;;;9.40;99.90;;;;;;5038466;28;19938;-66
2023/12/17 07:30:44;;;;;;;;;;;9.40;99.90;;;;;;5009328;27;19930;-66
2023/12/17 07:33:10;;;;;;;;;;;9.40;99.90;;;;;;5061823;27;20319;-67
2023/12/17 07:35:36;;;;;;;;;;;9.50;99.90;;;;;;5002149;28;19924;-66
2023/12/17 07:38:02;;;;;;;;;;;9.40;99.90;;;;;;5027175;28;19924;-66
2023/12/17 07:40:28;;;;;;;;;;;9.40;99.90;;;;;;5017298;28;20442;-66
2023/12/17 07:42:54;;;;;;;;;;;9.40;99.90;;;;;;5038898;28;19924;-67
2023/12/17 07:45:20;;;;;;;;;;;9.40;99.90;;;;;;5001627;28;20033;-66
2023/12/17 07:47:46;;;;;;;;;;;9.40;99.90;;;;;;5052455;28;19932;-67
2023/12/17 07:50:12;;;;;;;;;;;9.30;99.90;;;;;;5030331;28;19924;-66
2023/12/17 07:52:38;;;;;;;;;;;9.40;99.90;;;;;;5000215;28;19930;-66
2023/12/17 07:55:04;;;;;;;;;;;9.30;99.90;;;;;;5029652;28;19924;-66
2023/12/17 07:57:30;;;;;;;;;;;9.30;99.90;;;;;;5032526;27;19923;-67
2023/12/17 07:59:56;;;;;;;;;;;9.30;99.90;;;;;;5029404;28;20005;-66
2023/12/17 08:02:22;;;;;;;;;;;9.40;99.90;;;;;;4994690;28;19931;-67
2023/12/17 08:04:49;;;;;;;;;;;9.30;99.90;;;;;;5029354;28;19928;-67
2023/12/17 08:07:15;;;;;;;;;;;9.30;99.90;;;;;;4992762;28;20007;-67
2023/12/17 08:09:41;;;;;;;;;;;9.30;99.90;;;;;;5024106;28;19935;-66
2023/12/17 08:12:07;;;;;;;;;;;9.30;99.90;;;;;;5010147;28;19924;-66
2023/12/17 08:14:33;;;;;;;;;;;9.30;99.90;;;;;;5029785;28;19939;-67
2023/12/17 08:16:59;;;;;;;;;;;9.30;99.90;;;;;;5010681;28;19924;-67
2023/12/17 08:19:25;;;;;;;;;;;9.30;99.90;;;;;;5031143;28;19934;-67
2023/12/17 08:21:51;;;;;;;;;;;9.30;99.90;;;;;;4997890;28;19923;-68
2023/12/17 08:24:17;;;;;;;;;;;9.20;99.90;;;;;;5030676;28;19935;-65
2023/12/17 08:26:43;;;;;;;;;;;9.20;99.90;;;;;;5008338;28;19924;-66
2023/12/17 08:29:09;;;;;;;;;;;9.20;99.90;;;;;;5031964;28;21042;-66
2023/12/17 08:31:35;;;;;;;;;;;9.20;99.90;;;;;;4988522;28;19932;-67
2023/12/17 08:34:01;;;;;;;;;;;9.20;99.90;;;;;;5028602;28;19924;-66
2023/12/17 08:36:28;;;;;;;;;;;9.20;99.90;;;;;;5005777;28;19924;-66
2023/12/17 08:38:56;;;;;;;;;;;9.20;99.90;;;;;;5041395;28;19936;-66
2023/12/17 08:41:22;;;;;;;;;;;9.20;99.90;;;;;;5006459;27;20059;-67
2023/12/17 08:43:48;;;;;;;;;;;9.20;99.90;;;;;;5045491;27;21442;-67
2023/12/17 08:46:14;;;;;;;;;;;9.20;99.90;;;;;;4996303;28;19953;-72
2023/12/17 08:48:40;;;;;;;;;;;9.20;99.90;;;;;;5026866;28;19928;-67
2023/12/17 08:51:06;;;;;;;;;;;9.20;99.90;;;;;;5007326;28;19924;-68
2023/12/17 08:53:32;;;;;;;;;;;9.30;99.90;;;;;;5039581;28;19924;-67
2023/12/17 08:55:58;;;;;;;;;;;9.20;99.90;;;;;;5008363;28;19924;-67
2023/12/17 08:58:23;;;;;;;;;;;9.20;99.90;;;;;;5045520;27;19924;-68
2023/12/17 09:00:49;;;;;;;;;;;9.30;99.90;;;;;;4993738;28;20406;-65
2023/12/17 09:03:17;;;;;;;;;;;9.20;99.90;;;;;;5009663;28;20192;-66
2023/12/17 09:05:43;;;;;;;;;;;9.20;99.90;;;;;;4995558;28;19932;-66
2023/12/17 09:08:09;;;;;;;;;;;9.30;99.90;;;;;;5012137;28;19928;-66
2023/12/17 09:10:35;;;;;;;;;;;9.30;99.90;;;;;;4999293;28;21053;-65
2023/12/17 09:13:01;;;;;;;;;;;9.30;99.90;;;;;;5050973;28;19924;-66
2023/12/17 09:15:26;;;;;;;;;;;9.40;99.90;;;;;;4999657;28;20362;-65
2023/12/17 09:17:52;;;;;;;;;;;9.40;99.90;;;;;;5042725;28;19932;-65
2023/12/17 09:20:19;;;;;;;;;;;9.40;99.90;;;;;;5009676;28;20385;-65
2023/12/17 09:22:45;;;;;;;;;;;9.40;99.90;;;;;;5051247;28;19929;-66
2023/12/17 09:25:11;;;;;;;;;;;9.40;99.90;;;;;;5030661;28;19931;-65
2023/12/17 09:27:38;;;;;;;;;;;9.40;99.90;;;;;;4992441;28;20528;-65
2023/12/17 09:30:04;;;;;;;;;;;9.40;99.90;;;;;;5027866;28;20027;-67
2023/12/17 09:32:30;;;;;;;;;;;9.50;99.90;;;;;;5013336;28;19930;-66
2023/12/17 09:34:56;;;;;;;;;;;9.50;99.90;;;;;;5027886;28;19924;-66
2023/12/17 09:37:22;;;;;;;;;;;9.50;99.90;;;;;;5025053;27;19977;-67
2023/12/17 09:39:48;;;;;;;;;;;9.50;99.90;;;;;;5028923;28;19935;-63
2023/12/17 09:42:17;;;;;;;;;;;9.50;99.90;;;;;;5009493;28;19924;-66
2023/12/17 09:44:43;;;;;;;;;;;9.60;99.90;;;;;;5027362;28;19931;-66
2023/12/17 09:47:09;;;;;;;;;;;9.60;99.90;;;;;;4992307;28;19928;-66
2023/12/17 09:49:35;;;;;;;;;;;9.60;99.90;;;;;;5029092;28;20413;-66
2023/12/17 09:52:05;;;;;;;;;;;9.60;99.90;;;;;;5009901;28;19924;-65
2023/12/17 09:54:31;;;;;;;;;;;9.60;99.90;;;;;;5030311;28;19925;-66
2023/12/17 09:56:57;;;;;;;;;;;9.60;99.90;;;;;;4979309;28;19999;-66
2023/12/17 09:59:23;;;;;;;;;;;9.50;99.90;;;;;;5026805;28;19931;-66
2023/12/17 10:01:49;;;;;;;;;;;9.60;99.90;;;;;;4993983;28;19924;-63
2023/12/17 10:04:20;;;;;;;;;;;9.60;99.90;;;;;;5024036;28;19935;-67
2023/12/17 10:06:46;;;;;;;;;;;9.60;99.90;;;;;;5006808;28;20377;-68
2023/12/17 10:09:14;;;;;;;;;;;9.60;99.90;;;;;;5007211;28;19928;-67
2023/12/17 10:11:40;;;;;;;;;;;9.60;99.90;;;;;;5015444;28;19928;-68
2023/12/17 10:14:19;;;;;;;;;;;9.60;99.90;;;;;;5034623;28;19924;-67
2023/12/17 10:16:45;;;;;;;;;;;9.60;99.90;;;;;;4985190;28;20163;-68
2023/12/17 10:19:12;;;;;;;;;;;9.60;99.90;;;;;;5021978;28;19951;-69
2023/12/17 10:21:38;;;;;;;;;;;9.60;99.90;;;;;;5015075;28;20603;-68
2023/12/17 10:24:04;;;;;;;;;;;9.60;99.90;;;;;;5028547;28;19924;-68
2023/12/17 10:26:46;;;;;;;;;;;9.60;99.90;;;;;;5005197;28;19924;-68
2023/12/17 10:29:16;;;;;;;;;;;9.60;99.90;;;;;;5027253;28;19954;-68
2023/12/17 10:31:43;;;;;;;;;;;9.60;99.90;;;;;;5010783;28;19994;-68
2023/12/17 10:34:19;;;;;;;;;;;9.70;99.90;;;;;;5033324;28;19928;-68
2023/12/17 10:36:46;;;;;;;;;;;9.70;99.90;;;;;;5019763;27;19935;-67
2023/12/17 10:39:14;;;;;;;;;;;9.70;99.90;;;;;;5035245;27;19924;-68
2023/12/17 10:41:40;;;;;;;;;;;9.70;99.90;;;;;;5007971;27;19928;-68
2023/12/17 10:44:11;;;;;;;;;;;9.60;99.90;;;;;;5038069;28;20416;-68
2023/12/17 10:46:38;;;;;;;;;;;9.70;99.90;;;;;;4999639;28;19931;-66
2023/12/17 10:49:06;;;;;;;;;;;9.70;99.90;;;;;;5006848;28;19929;-66
2023/12/17 10:51:34;;;;;;;;;;;9.70;99.90;;;;;;5001929;28;19923;-68
2023/12/17 10:54:01;;;;;;;;;;;9.70;99.90;;;;;;5027516;28;19928;-67
2023/12/17 10:56:28;;;;;;;;;;;9.70;99.90;;;;;;4992404;28;19930;-66
2023/12/17 10:58:55;;;;;;;;;;;9.70;99.90;;;;;;5029314;28;19972;-67
2023/12/17 11:01:21;;;;;;;;;;;9.70;99.90;;;;;;5010023;28;19928;-66
2023/12/17 11:03:47;;;;;;;;;;;9.70;99.90;;;;;;5038603;28;19924;-67
2023/12/17 11:06:14;;;;;;;;;;;9.60;99.90;;;;;;5003139;28;19935;-67
2023/12/17 11:08:40;;;;;;;;;;;9.70;99.90;;;;;;5030339;28;19929;-66
2023/12/17 11:11:06;;;;;;;;;;;9.60;99.90;;;;;;4997386;28;19924;-67
2023/12/17 11:13:33;;;;;;;;;;;9.60;99.90;;;;;;5026159;28;21079;-66
2023/12/17 11:16:19;;;;;;;;;;;9.60;99.90;;;;;;5002548;28;19943;-66
2023/12/17 11:18:45;;;;;;;;;;;9.60;99.90;;;;;;5036193;28;19931;-67
2023/12/17 11:21:11;;;;;;;;;;;9.70;99.90;;;;;;4994013;28;19924;-66
2023/12/17 11:23:37;;;;;;;;;;;9.70;99.90;;;;;;5032710;28;20482;-66
2023/12/17 11:26:05;;;;;;;;;;;9.60;99.90;;;;;;5002406;28;19924;-66
2023/12/17 11:28:32;;;;;;;;;;;9.60;99.90;;;;;;5030671;28;19935;-68
2023/12/17 11:30:58;;;;;;;;;;;9.60;99.90;;;;;;5001522;28;21144;-66
2023/12/17 11:33:25;;;;;;;;;;;9.60;99.90;;;;;;5045329;28;19931;-66
2023/12/17 11:35:51;;;;;;;;;;;9.60;99.90;;;;;;4996820;28;20553;-66
2023/12/17 11:38:17;;;;;;;;;;;9.50;99.90;;;;;;5012598;28;19940;-66
2023/12/17 11:40:43;;;;;;;;;;;9.60;99.90;;;;;;5009189;28;19924;-65
2023/12/17 11:43:09;;;;;;;;;;;9.50;99.90;;;;;;5038875;28;19924;-67
2023/12/17 11:45:43;;;;;;;;;;;9.50;99.90;;;;;;4999723;28;19936;-68
2023/12/17 11:48:14;;;;;;;;;;;9.50;99.90;;;;;;5044294;28;21087;-67
2023/12/17 11:50:48;;;;;;;;;;;9.60;99.90;;;;;;5002107;27;19937;-66
2023/12/17 11:53:15;;;;;;;;;;;9.60;99.90;;;;;;5057579;27;20680;-68
2023/12/17 11:55:45;;;;;;;;;;;9.60;99.90;;;;;;5001070;28;19928;-66
2023/12/17 11:58:15;;;;;;;;;;;9.60;99.90;;;;;;5036690;28;19955;-67
2023/12/17 12:00:42;;;;;;;;;;;9.60;99.90;;;;;;4998392;28;19940;-66
2023/12/17 12:03:08;;;;;;;;;;;9.60;99.90;;;;;;5012291;28;20796;-68
2023/12/17 12:05:34;;;;;;;;;;;9.60;99.90;;;;;;4998139;28;19940;-66
2023/12/17 12:08:00;;;;;;;;;;;9.50;99.90;;;;;;5036739;28;19929;-66
2023/12/17 12:10:26;;;;;;;;;;;9.50;99.90;;;;;;5002322;28;19924;-67
2023/12/17 12:13:02;;;;;;;;;;;9.50;99.90;;;;;;5040372;28;19935;-68
2023/12/17 12:15:28;;;;;;;;;;;9.50;99.90;;;;;;4999502;28;19924;-67
2023/12/17 12:17:53;;;;;;;;;;;9.40;99.90;;;;;;5022887;28;19932;-67
2023/12/17 12:20:31;;;;;;;;;;;9.50;99.90;;;;;;5010477;28;19975;-65
2023/12/17 12:22:57;;;;;;;;;;;9.50;99.90;;;;;;5038834;28;19924;-66
2023/12/17 12:25:23;;;;;;;;;;;9.40;99.90;;;;;;4984825;28;19951;-66
2023/12/17 12:27:49;;;;;;;;;;;9.50;99.90;;;;;;5050111;28;19951;-66
2023/12/17 12:30:25;;;;;;;;;;;9.50;99.90;;;;;;5022750;28;19925;-66
2023/12/17 12:32:51;;;;;;;;;;;9.50;99.90;;;;;;5021487;28;19931;-66
2023/12/17 12:35:21;;;;;;;;;;;9.50;99.90;;;;;;5015531;28;19928;-66
2023/12/17 12:37:47;;;;;;;;;;;9.40;99.90;;;;;;4998931;28;19924;-66
2023/12/17 12:40:13;;;;;;;;;;;9.40;99.90;;;;;;5033414;28;19928;-67
2023/12/17 12:42:39;;;;;;;;;;;9.50;99.90;;;;;;4984261;28;19974;-66
2023/12/17 12:45:05;;;;;;;;;;;9.80;99.90;;;;;;5050396;28;19923;-67
2023/12/17 12:47:31;;;;;;;;;;;9.90;99.90;;;;;;5014843;28;20484;-66
2023/12/17 12:49:57;;;;;;;;;;;10.80;99.90;;;;;;5050816;28;20872;-67
2023/12/17 12:52:23;;;;;;;;;;;11.70;99.90;;;;;;5016948;28;19967;-68
2023/12/17 12:54:50;;;;;;;;;;;11.40;99.90;;;;;;5050552;28;20643;-66
2023/12/17 12:57:16;;;;;;;;;;;12.00;99.90;;;;;;5012329;28;19924;-67
2023/12/17 12:59:45;;;;;;;;;;;12.30;99.90;;;;;;5049010;28;19931;-67
2023/12/17 13:02:11;;;;;;;;;;;12.40;99.90;;;;;;5009584;28;21132;-66
2023/12/17 13:04:38;;;;;;;;;;;12.50;99.90;;;;;;5047675;28;19924;-66
2023/12/17 13:07:04;;;;;;;;;;;12.30;99.90;;;;;;5016073;28;19924;-66
2023/12/17 13:09:29;;;;;;;;;;;12.50;99.90;;;;;;5050387;28;20045;-66
2023/12/17 13:11:55;;;;;;;;;;;12.40;99.90;;;;;;5013807;28;20666;-66
2023/12/17 13:14:21;;;;;;;;;;;12.40;99.90;;;;;;5028523;28;20047;-67
2023/12/17 13:16:50;;;;;;;;;;;12.60;99.90;;;;;;5023791;28;20007;-66
2023/12/17 13:19:16;;;;;;;;;;;12.90;99.90;;;;;;5047028;28;19924;-66
2023/12/17 13:21:42;;;;;;;;;;;13.20;99.90;;;;;;5020554;28;19924;-66
2023/12/17 13:24:08;;;;;;;;;;;13.30;99.90;;;;;;5047452;28;20568;-66
2023/12/17 13:26:36;;;;;;;;;;;13.40;99.90;;;;;;5025500;27;19946;-66
2023/12/17 13:29:02;;;;;;;;;;;13.20;99.90;;;;;;5053086;27;19931;-67
2023/12/17 13:31:28;;;;;;;;;;;12.80;99.90;;;;;;5014345;28;19997;-66
2023/12/17 13:33:54;;;;;;;;;;;12.60;99.90;;;;;;5043061;28;19932;-67
2023/12/17 13:36:20;;;;;;;;;;;12.90;99.90;;;;;;5015556;28;19928;-66
2023/12/17 13:38:46;;;;;;;;;;;12.80;99.90;;;;;;5044409;28;20417;-66
2023/12/17 13:41:12;;;;;;;;;;;12.80;99.90;;;;;;4992214;28;19928;-66
2023/12/17 13:43:38;;;;;;;;;;;13.20;99.90;;;;;;5017924;28;20311;-65
2023/12/17 13:46:04;;;;;;;;;;;12.60;99.90;;;;;;5013920;28;20070;-67
2023/12/17 13:48:30;;;;;;;;;;;12.50;99.90;;;;;;5041541;28;20670;-67
2023/12/17 13:50:56;;;;;;;;;;;12.50;99.90;;;;;;5023843;27;19923;-67
2023/12/17 13:53:22;;;;;;;;;;;12.70;99.90;;;;;;5056473;27;19991;-66
2023/12/17 13:55:48;;;;;;;;;;;12.40;99.90;;;;;;4999143;28;19924;-66
2023/12/17 13:58:14;;;;;;;;;;;12.50;99.90;;;;;;5044876;28;19935;-65
2023/12/17 14:00:40;;;;;;;;;;;12.30;99.90;;;;;;5020817;27;19924;-65
2023/12/17 14:03:06;;;;;;;;;;;11.60;99.90;;;;;;5062526;27;19954;-66
2023/12/17 14:05:32;;;;;;;;;;;10.80;99.90;;;;;;5021120;28;19924;-66
2023/12/17 14:07:58;;;;;;;;;;;10.40;99.90;;;;;;5045063;28;19954;-66
2023/12/17 14:10:24;;;;;;;;;;;10.20;99.90;;;;;;5021749;28;19931;-66
2023/12/17 14:12:50;;;;;;;;;;;10.00;99.90;;;;;;5027619;28;19928;-66
2023/12/17 14:15:16;;;;;;;;;;;9.90;99.90;;;;;;5040138;28;19931;-65
2023/12/17 14:17:42;;;;;;;;;;;9.80;99.90;;;;;;5000510;28;19930;-66
2023/12/17 14:20:08;;;;;;;;;;;10.00;99.90;;;;;;5030383;28;20763;-66
2023/12/17 14:22:34;;;;;;;;;;;10.40;99.90;;;;;;5014470;28;19924;-65